Time;durP1;ratioP1;P1;durP2;ratioP2;P2;SDS_P1;SDS_P2;PMS_P1;PMS_P2;Temp;Humidity;BMP_temperature;BMP_pressure;BME280_temperature;BME280_humidity;BME280_pressure;Samples;Min_cycle;Max_cycle;Signal;HPM_P1;HPM_P2
2023/08/29 00:01:48;;;;;;;1.35;1.15;;;17.80;63.30;;;;;;5014213;28;20040;-72
2023/08/29 00:04:14;;;;;;;1.73;1.35;;;17.80;63.40;;;;;;5011799;28;20577;-68
2023/08/29 00:06:41;;;;;;;2.47;1.25;;;17.80;63.40;;;;;;5013110;28;20033;-67
2023/08/29 00:09:07;;;;;;;2.53;1.40;;;17.80;63.50;;;;;;5017040;28;20509;-69
2023/08/29 00:11:34;;;;;;;3.38;1.52;;;17.70;63.30;;;;;;5012979;28;20056;-68
2023/08/29 00:13:59;;;;;;;2.45;1.52;;;17.70;63.40;;;;;;5012131;28;20034;-69
2023/08/29 00:16:26;;;;;;;2.13;1.33;;;17.60;63.30;;;;;;5011983;28;20033;-67
2023/08/29 00:18:52;;;;;;;2.50;1.50;;;17.60;63.40;;;;;;5015170;28;20064;-68
2023/08/29 00:21:18;;;;;;;1.83;1.33;;;17.60;63.40;;;;;;5018262;28;20030;-67
2023/08/29 00:23:47;;;;;;;3.42;1.42;;;17.50;63.30;;;;;;5017667;28;20110;-67
2023/08/29 00:26:13;;;;;;;2.58;1.98;;;17.50;63.30;;;;;;5018834;28;20049;-69
2023/08/29 00:28:40;;;;;;;1.85;1.17;;;17.50;63.40;;;;;;5024967;28;20079;-68
2023/08/29 00:31:06;;;;;;;2.28;1.10;;;17.40;63.30;;;;;;5025021;28;20049;-69
2023/08/29 00:33:32;;;;;;;1.77;0.93;;;17.40;63.40;;;;;;5010875;28;20033;-72
2023/08/29 00:35:59;;;;;;;2.33;1.17;;;17.30;63.30;;;;;;5019339;28;20033;-67
2023/08/29 00:38:26;;;;;;;3.03;1.58;;;17.30;63.40;;;;;;5019289;28;20065;-67
2023/08/29 00:40:53;;;;;;;1.40;1.10;;;17.20;63.30;;;;;;5017855;28;20056;-67
2023/08/29 00:43:19;;;;;;;1.50;1.15;;;17.20;63.40;;;;;;5008773;28;20117;-68
2023/08/29 00:45:48;;;;;;;2.85;0.82;;;17.10;63.20;;;;;;5016255;28;20052;-69
2023/08/29 00:48:14;;;;;;;4.13;1.77;;;17.10;63.30;;;;;;5013276;28;20034;-70
2023/08/29 00:50:44;;;;;;;1.67;0.98;;;17.00;63.20;;;;;;5016607;28;20084;-67
2023/08/29 00:53:14;;;;;;;1.35;1.08;;;17.00;63.20;;;;;;5010298;28;20025;-71
2023/08/29 00:55:40;;;;;;;2.60;1.10;;;16.90;63.20;;;;;;5019330;28;20045;-69
2023/08/29 00:58:06;;;;;;;2.00;1.00;;;16.90;63.20;;;;;;5009572;28;20034;-69
2023/08/29 01:00:33;;;;;;;1.40;0.90;;;16.80;63.10;;;;;;5010992;28;20151;-70
2023/08/29 01:03:01;;;;;;;1.10;1.00;;;16.80;63.20;;;;;;5002226;28;20038;-75
2023/08/29 01:05:30;;;;;;;1.75;1.10;;;16.80;63.30;;;;;;5002291;28;20055;-73
2023/08/29 01:07:59;;;;;;;2.28;1.20;;;16.70;63.20;;;;;;5018896;28;20038;-72
2023/08/29 01:10:42;;;;;;;1.15;0.80;;;16.70;63.20;;;;;;5013689;28;20435;-76
2023/08/29 01:13:25;;;;;;;1.13;0.82;;;16.60;63.20;;;;;;5009162;28;20156;-75
2023/08/29 01:15:55;;;;;;;2.17;0.90;;;16.60;63.20;;;;;;5009303;28;20825;-71
2023/08/29 01:18:24;;;;;;;1.35;1.25;;;16.60;63.20;;;;;;5007962;28;20120;-69
2023/08/29 01:21:00;;;;;;;1.77;1.35;;;16.60;63.20;;;;;;5017101;28;20119;-70
2023/08/29 01:23:39;;;;;;;1.75;0.90;;;16.50;63.10;;;;;;5009147;28;20049;-71
2023/08/29 01:26:13;;;;;;;1.58;0.85;;;16.50;63.20;;;;;;4996502;28;20045;-72
2023/08/29 01:28:45;;;;;;;1.98;0.95;;;16.50;63.20;;;;;;5006924;28;20034;-72
2023/08/29 01:31:12;;;;;;;1.58;1.02;;;16.50;63.20;;;;;;5017815;28;20381;-72
2023/08/29 01:33:40;;;;;;;0.82;0.80;;;16.50;63.20;;;;;;5009417;28;20037;-73
2023/08/29 01:36:07;;;;;;;1.52;0.80;;;16.50;63.20;;;;;;5014822;28;20048;-71
2023/08/29 01:38:33;;;;;;;0.95;0.93;;;16.60;63.40;;;;;;5013337;28;20032;-73
2023/08/29 01:40:58;;;;;;;0.90;0.70;;;16.50;63.20;;;;;;5015421;28;20197;-75
2023/08/29 01:43:24;;;;;;;1.63;0.90;;;16.60;63.40;;;;;;5011097;28;20317;-74
2023/08/29 01:45:51;;;;;;;1.27;1.00;;;16.60;63.50;;;;;;5015057;28;20401;-72
2023/08/29 01:48:17;;;;;;;1.38;0.77;;;16.50;63.40;;;;;;5013827;28;20298;-75
2023/08/29 01:50:44;;;;;;;1.42;0.90;;;16.50;63.40;;;;;;5013456;28;20134;-71
2023/08/29 01:53:10;;;;;;;1.88;0.88;;;16.60;63.60;;;;;;5019967;28;20156;-73
2023/08/29 01:55:38;;;;;;;1.58;1.00;;;16.60;63.70;;;;;;5018698;28;20041;-69
2023/08/29 01:58:06;;;;;;;1.52;0.60;;;16.50;63.50;;;;;;5011343;28;20033;-68
2023/08/29 02:00:32;;;;;;;3.20;1.45;;;16.50;63.50;;;;;;5016926;28;20037;-71
2023/08/29 02:02:59;;;;;;;1.23;0.80;;;16.50;63.60;;;;;;5015665;28;20032;-71
2023/08/29 02:05:25;;;;;;;1.55;0.80;;;16.50;63.60;;;;;;5010771;28;20070;-68
2023/08/29 02:07:51;;;;;;;1.60;1.02;;;16.60;63.80;;;;;;5017153;28;20041;-69
2023/08/29 02:10:17;;;;;;;2.65;0.85;;;16.60;63.80;;;;;;5016388;28;20408;-69
2023/08/29 02:12:43;;;;;;;1.50;0.80;;;16.60;63.90;;;;;;4998176;28;20513;-71
2023/08/29 02:15:10;;;;;;;0.82;0.80;;;16.60;63.90;;;;;;5013938;28;20222;-68
2023/08/29 02:17:39;;;;;;;0.82;0.60;;;16.60;63.90;;;;;;5013487;28;20033;-70
2023/08/29 02:20:08;;;;;;;1.52;1.08;;;16.60;63.90;;;;;;5016284;28;20033;-70
2023/08/29 02:22:35;;;;;;;1.00;0.90;;;16.60;63.90;;;;;;5016250;28;20026;-71
2023/08/29 02:25:04;;;;;;;0.90;0.63;;;16.70;64.10;;;;;;5018589;28;20037;-72
2023/08/29 02:27:32;;;;;;;0.95;0.80;;;16.70;64.10;;;;;;5025317;28;20231;-72
2023/08/29 02:29:58;;;;;;;1.35;0.80;;;16.70;64.10;;;;;;5015426;28;20033;-71
2023/08/29 02:32:25;;;;;;;1.10;0.90;;;16.80;64.30;;;;;;5017105;28;20033;-69
2023/08/29 02:34:51;;;;;;;2.17;0.95;;;16.70;64.20;;;;;;5018561;28;20063;-72
2023/08/29 02:37:17;;;;;;;1.20;0.68;;;16.70;64.20;;;;;;5019956;28;20079;-69
2023/08/29 02:39:43;;;;;;;1.80;1.27;;;16.70;64.20;;;;;;5019692;28;20096;-73
2023/08/29 02:42:10;;;;;;;1.85;1.52;;;16.80;64.40;;;;;;5017695;28;20108;-70
2023/08/29 02:44:35;;;;;;;1.73;0.95;;;16.80;64.40;;;;;;5018465;28;20101;-69
2023/08/29 02:47:01;;;;;;;0.95;0.70;;;16.80;64.40;;;;;;5020102;28;20076;-71
2023/08/29 02:49:27;;;;;;;1.45;1.05;;;16.80;64.40;;;;;;4995634;28;20022;-70
2023/08/29 02:51:56;;;;;;;2.30;0.95;;;16.80;64.40;;;;;;5019824;28;20045;-71
2023/08/29 02:54:25;;;;;;;1.55;0.98;;;16.80;64.40;;;;;;5015606;28;20166;-74
2023/08/29 02:56:52;;;;;;;1.00;0.70;;;16.80;64.40;;;;;;5014211;28;20168;-71
2023/08/29 02:59:18;;;;;;;2.03;0.90;;;16.80;64.40;;;;;;5018390;28;20041;-77
2023/08/29 03:01:44;;;;;;;2.42;1.67;;;16.80;64.40;;;;;;5020554;28;20113;-73
2023/08/29 03:04:10;;;;;;;1.40;0.90;;;16.80;64.50;;;;;;5015579;28;20048;-77
2023/08/29 03:06:36;;;;;;;1.27;0.95;;;16.80;64.60;;;;;;5013429;28;20030;-72
2023/08/29 03:09:03;;;;;;;0.90;0.80;;;16.80;64.60;;;;;;5017453;28;20537;-70
2023/08/29 03:11:29;;;;;;;2.00;0.93;;;16.80;64.60;;;;;;5007593;28;20398;-71
2023/08/29 03:13:57;;;;;;;1.95;0.95;;;16.80;64.60;;;;;;5011824;28;20037;-72
2023/08/29 03:16:23;;;;;;;1.10;0.93;;;16.80;64.60;;;;;;5008810;28;20403;-75
2023/08/29 03:18:50;;;;;;;1.67;1.10;;;16.80;64.60;;;;;;5020968;28;20026;-75
2023/08/29 03:21:16;;;;;;;1.25;0.90;;;16.80;64.70;;;;;;5014832;28;20041;-71
2023/08/29 03:23:43;;;;;;;1.45;0.70;;;16.80;64.70;;;;;;5021036;28;20502;-74
2023/08/29 03:26:10;;;;;;;1.13;0.98;;;16.90;64.90;;;;;;5016121;28;20034;-72
2023/08/29 03:28:37;;;;;;;2.42;1.30;;;16.90;65.00;;;;;;5012539;28;20198;-74
2023/08/29 03:31:14;;;;;;;1.45;0.90;;;16.80;64.80;;;;;;5012037;28;20061;-71
2023/08/29 03:33:41;;;;;;;1.52;1.25;;;16.90;65.10;;;;;;5019494;28;20025;-69
2023/08/29 03:36:09;;;;;;;1.75;0.98;;;16.90;65.00;;;;;;5023523;28;20029;-74
2023/08/29 03:38:38;;;;;;;2.17;1.13;;;16.90;65.00;;;;;;5020834;28;20033;-71
2023/08/29 03:41:05;;;;;;;2.03;1.23;;;16.90;65.10;;;;;;5021691;28;20433;-74
2023/08/29 03:43:33;;;;;;;5.57;2.50;;;16.90;65.10;;;;;;5015489;28;20465;-69
2023/08/29 03:46:04;;;;;;;1.13;1.00;;;16.90;65.10;;;;;;5020131;28;20060;-73
2023/08/29 03:48:31;;;;;;;1.40;0.80;;;16.90;65.20;;;;;;5020247;28;20493;-70
2023/08/29 03:50:58;;;;;;;1.15;0.90;;;16.90;65.20;;;;;;5016330;28;20060;-71
2023/08/29 03:53:24;;;;;;;1.45;0.90;;;16.90;65.20;;;;;;5010715;28;20064;-69
2023/08/29 03:55:50;;;;;;;1.40;0.90;;;16.90;65.20;;;;;;5019684;28;20075;-76
2023/08/29 03:58:17;;;;;;;0.85;0.85;;;16.90;65.30;;;;;;5022391;28;20049;-69
2023/08/29 04:00:44;;;;;;;1.77;1.10;;;17.00;65.40;;;;;;5018465;28;20080;-70
2023/08/29 04:03:10;;;;;;;1.75;0.90;;;16.90;65.80;;;;;;5019515;28;20064;-72
2023/08/29 04:05:39;;;;;;;1.55;0.90;;;17.00;65.50;;;;;;5011249;28;20485;-70
2023/08/29 04:08:06;;;;;;;1.98;0.95;;;17.00;65.50;;;;;;5018395;28;20034;-70
2023/08/29 04:10:41;;;;;;;1.98;1.00;;;17.00;65.50;;;;;;5021099;28;20077;-68
2023/08/29 04:13:08;;;;;;;1.60;0.98;;;17.00;65.70;;;;;;5029971;28;20030;-68
2023/08/29 04:15:35;;;;;;;1.45;1.10;;;17.00;65.60;;;;;;5011819;28;20434;-68
2023/08/29 04:18:01;;;;;;;2.75;1.08;;;17.00;65.60;;;;;;5016060;28;20030;-68
2023/08/29 04:20:28;;;;;;;2.53;1.10;;;17.00;65.60;;;;;;5022344;28;20030;-70
2023/08/29 04:22:55;;;;;;;2.33;1.00;;;17.00;65.70;;;;;;5021435;28;20116;-67
2023/08/29 04:25:22;;;;;;;1.83;1.17;;;17.00;65.70;;;;;;5016674;28;20294;-72
2023/08/29 04:27:48;;;;;;;1.20;1.10;;;17.00;65.70;;;;;;5017657;28;20060;-70
2023/08/29 04:30:14;;;;;;;1.50;1.25;;;17.00;65.70;;;;;;5020265;28;20592;-70
2023/08/29 04:32:40;;;;;;;2.08;1.17;;;17.00;65.80;;;;;;5014836;28;20079;-69
2023/08/29 04:35:08;;;;;;;1.40;1.08;;;17.00;65.80;;;;;;5018386;28;20037;-67
2023/08/29 04:37:37;;;;;;;4.20;1.15;;;17.00;65.80;;;;;;5023831;28;20038;-69
2023/08/29 04:40:07;;;;;;;2.53;1.15;;;17.00;65.90;;;;;;5019341;28;20502;-68
2023/08/29 04:42:34;;;;;;;1.02;0.80;;;17.00;65.90;;;;;;5023120;28;20433;-70
2023/08/29 04:45:06;;;;;;;1.83;1.10;;;17.10;66.00;;;;;;5032615;28;20029;-72
2023/08/29 04:47:32;;;;;;;2.00;1.00;;;17.10;66.10;;;;;;5024341;28;20052;-69
2023/08/29 04:50:00;;;;;;;1.40;1.02;;;17.00;65.90;;;;;;5018030;28;20568;-70
2023/08/29 04:52:30;;;;;;;2.20;0.90;;;17.00;66.40;;;;;;5016999;28;20033;-68
2023/08/29 04:54:57;;;;;;;1.50;1.35;;;17.00;65.90;;;;;;5015049;28;20552;-71
2023/08/29 04:57:23;;;;;;;1.50;1.25;;;17.00;65.90;;;;;;5018487;28;20033;-68
2023/08/29 04:59:49;;;;;;;2.17;1.00;;;17.10;66.20;;;;;;5020966;28;20410;-68
2023/08/29 05:02:17;;;;;;;2.30;1.10;;;17.10;66.20;;;;;;5018995;28;20068;-68
2023/08/29 05:04:45;;;;;;;1.50;1.00;;;17.10;66.20;;;;;;5019568;28;20037;-68
2023/08/29 05:07:11;;;;;;;1.40;0.90;;;17.10;66.20;;;;;;5015975;28;20445;-69
2023/08/29 05:09:37;;;;;;;2.20;0.90;;;17.10;66.30;;;;;;5014908;28;20041;-66
2023/08/29 05:12:04;;;;;;;1.40;1.00;;;17.10;66.30;;;;;;5015690;28;20465;-67
2023/08/29 05:14:30;;;;;;;2.28;0.90;;;17.10;66.30;;;;;;5016700;28;20478;-70
2023/08/29 05:16:56;;;;;;;1.70;1.60;;;17.10;66.30;;;;;;5007841;28;20133;-68
2023/08/29 05:19:23;;;;;;;1.98;1.23;;;17.10;66.30;;;;;;5011679;28;20579;-70
2023/08/29 05:21:49;;;;;;;1.38;0.95;;;17.10;66.30;;;;;;5017968;28;20434;-67
2023/08/29 05:24:15;;;;;;;2.00;1.55;;;17.10;66.90;;;;;;5014793;28;20033;-69
2023/08/29 05:26:41;;;;;;;1.52;1.30;;;17.10;66.40;;;;;;5018144;28;20496;-67
2023/08/29 05:29:07;;;;;;;1.70;1.27;;;17.10;66.40;;;;;;5018013;28;20405;-67
2023/08/29 05:31:33;;;;;;;1.40;1.00;;;17.10;66.40;;;;;;5019696;28;20037;-72
2023/08/29 05:33:59;;;;;;;2.35;1.40;;;17.10;66.40;;;;;;5013446;28;20563;-73
2023/08/29 05:36:25;;;;;;;1.40;1.30;;;17.10;66.40;;;;;;5015608;28;20281;-75
2023/08/29 05:38:51;;;;;;;1.85;1.27;;;17.10;66.40;;;;;;5019507;28;20022;-70
2023/08/29 05:41:17;;;;;;;2.53;1.17;;;17.10;66.50;;;;;;5019722;28;20026;-73
2023/08/29 05:43:43;;;;;;;2.55;1.58;;;17.10;66.50;;;;;;5012811;28;20025;-70
2023/08/29 05:46:09;;;;;;;1.45;1.30;;;17.10;66.50;;;;;;5017705;28;20556;-68
2023/08/29 05:48:35;;;;;;;1.77;1.20;;;17.10;66.50;;;;;;5009751;28;20109;-69
2023/08/29 05:51:01;;;;;;;1.83;1.30;;;17.20;66.70;;;;;;5009292;28;20049;-71
2023/08/29 05:53:27;;;;;;;1.42;1.20;;;17.20;66.60;;;;;;5010359;28;20144;-67
2023/08/29 05:55:53;;;;;;;1.88;1.40;;;17.20;66.60;;;;;;5014694;28;20168;-69
2023/08/29 05:58:21;;;;;;;1.85;1.45;;;17.20;66.60;;;;;;5015062;28;20869;-68
2023/08/29 06:00:48;;;;;;;2.30;1.17;;;17.20;66.60;;;;;;5012402;28;20053;-71
2023/08/29 06:03:14;;;;;;;2.00;1.30;;;17.30;66.80;;;;;;5014699;28;20041;-71
2023/08/29 06:05:43;;;;;;;3.00;1.67;;;17.30;66.80;;;;;;5018910;28;20049;-71
2023/08/29 06:08:09;;;;;;;3.45;2.17;;;17.30;66.70;;;;;;5016671;28;20029;-70
2023/08/29 06:10:35;;;;;;;4.50;2.13;;;17.40;66.80;;;;;;5004094;28;20076;-69
2023/08/29 06:13:02;;;;;;;3.15;1.77;;;17.40;66.80;;;;;;5006603;28;20078;-70
2023/08/29 06:15:28;;;;;;;2.88;2.28;;;17.40;66.70;;;;;;5013804;28;20037;-73
2023/08/29 06:17:55;;;;;;;3.00;1.80;;;17.50;66.90;;;;;;5017326;28;20044;-68
2023/08/29 06:20:21;;;;;;;2.08;1.88;;;17.50;66.80;;;;;;5019436;28;20104;-70
2023/08/29 06:22:48;;;;;;;2.30;2.10;;;17.60;66.90;;;;;;5011162;28;20041;-68
2023/08/29 06:25:15;;;;;;;3.08;2.10;;;17.60;67.40;;;;;;5014236;28;20033;-70
2023/08/29 06:27:41;;;;;;;3.35;1.95;;;17.70;67.00;;;;;;5006107;28;20439;-71
2023/08/29 06:30:07;;;;;;;2.10;1.90;;;17.70;66.90;;;;;;5013891;28;20033;-70
2023/08/29 06:32:35;;;;;;;4.45;2.40;;;17.80;67.00;;;;;;5007785;28;20026;-68
2023/08/29 06:35:01;;;;;;;3.38;2.22;;;17.80;66.90;;;;;;5013495;28;20032;-67
2023/08/29 06:37:28;;;;;;;4.30;2.10;;;17.90;66.90;;;;;;5004947;28;20034;-71
2023/08/29 06:39:54;;;;;;;4.18;2.22;;;17.90;66.90;;;;;;5004583;28;20070;-70
2023/08/29 06:42:21;;;;;;;2.83;2.00;;;18.00;66.90;;;;;;5008140;28;20458;-72
2023/08/29 06:44:48;;;;;;;3.22;2.33;;;18.00;66.90;;;;;;5012875;28;20068;-72
2023/08/29 06:47:15;;;;;;;4.18;2.50;;;18.10;67.00;;;;;;5013343;28;20037;-73
2023/08/29 06:49:41;;;;;;;2.80;2.28;;;18.10;66.90;;;;;;5009422;28;20064;-82
2023/08/29 06:52:08;;;;;;;2.45;2.00;;;18.20;67.00;;;;;;5012871;28;20045;-72
2023/08/29 06:54:35;;;;;;;2.60;2.13;;;18.30;67.10;;;;;;5016958;28;20040;-71
2023/08/29 06:57:05;;;;;;;2.75;2.08;;;18.30;67.00;;;;;;5005560;28;20042;-77
2023/08/29 06:59:32;;;;;;;3.65;2.60;;;18.40;67.00;;;;;;5006390;28;20029;-70
2023/08/29 07:01:59;;;;;;;3.05;2.35;;;18.50;67.10;;;;;;5018954;28;20116;-70
2023/08/29 07:04:26;;;;;;;3.58;2.30;;;18.50;66.90;;;;;;5016536;28;20033;-71
2023/08/29 07:06:52;;;;;;;3.45;2.42;;;18.50;66.90;;;;;;5010427;28;20097;-73
2023/08/29 07:09:19;;;;;;;5.40;2.65;;;18.60;67.10;;;;;;5017638;28;20033;-72
2023/08/29 07:11:45;;;;;;;3.80;2.40;;;18.70;67.10;;;;;;5015472;28;20046;-70
2023/08/29 07:14:12;;;;;;;3.05;2.03;;;18.70;67.20;;;;;;5005203;28;20434;-73
2023/08/29 07:16:38;;;;;;;2.92;2.10;;;18.80;67.40;;;;;;5010665;28;20438;-70
2023/08/29 07:19:05;;;;;;;2.50;1.77;;;18.90;67.60;;;;;;5005944;28;20030;-72
2023/08/29 07:21:31;;;;;;;3.33;1.98;;;19.00;67.80;;;;;;5018704;28;20029;-72
2023/08/29 07:23:58;;;;;;;4.90;2.53;;;19.10;68.00;;;;;;5008676;28;20124;-70
2023/08/29 07:26:24;;;;;;;5.60;2.45;;;19.20;67.80;;;;;;5017665;28;20056;-73
2023/08/29 07:28:51;;;;;;;7.07;3.00;;;19.30;67.90;;;;;;5012355;28;20056;-72
2023/08/29 07:31:18;;;;;;;6.68;3.28;;;19.40;67.90;;;;;;5008441;28;20046;-73
2023/08/29 07:33:47;;;;;;;6.65;2.80;;;19.50;68.00;;;;;;5003235;28;20034;-72
2023/08/29 07:36:15;;;;;;;4.90;2.63;;;19.60;68.10;;;;;;5005344;28;20038;-72
2023/08/29 07:38:45;;;;;;;6.53;3.00;;;19.60;68.00;;;;;;4999426;28;20104;-71
2023/08/29 07:41:12;;;;;;;4.82;3.00;;;19.60;67.90;;;;;;5008429;28;20521;-72
2023/08/29 07:43:38;;;;;;;5.53;2.80;;;19.70;68.00;;;;;;5001620;28;20104;-70
2023/08/29 07:46:04;;;;;;;4.38;2.50;;;19.70;67.90;;;;;;5008126;28;20382;-70
2023/08/29 07:48:32;;;;;;;4.28;2.25;;;19.70;67.90;;;;;;5007110;28;20045;-73
2023/08/29 07:50:58;;;;;;;4.20;2.60;;;19.70;67.90;;;;;;5009309;28;20053;-71
2023/08/29 07:53:24;;;;;;;3.28;2.42;;;19.70;68.00;;;;;;5008793;28;20030;-70
2023/08/29 07:55:53;;;;;;;3.33;2.30;;;19.70;68.00;;;;;;5014141;28;20742;-72
2023/08/29 07:58:20;;;;;;;6.35;2.78;;;19.70;68.00;;;;;;5008437;28;20033;-73
2023/08/29 08:00:47;;;;;;;7.68;2.17;;;19.70;68.00;;;;;;5008905;28;20029;-70
2023/08/29 08:03:13;;;;;;;3.00;2.10;;;19.70;67.90;;;;;;5003123;28;20042;-73
2023/08/29 08:05:40;;;;;;;3.63;2.30;;;19.80;68.00;;;;;;5015254;28;20111;-71
2023/08/29 08:08:06;;;;;;;3.65;2.15;;;19.80;67.90;;;;;;5007096;28;20067;-74
2023/08/29 08:10:33;;;;;;;4.50;2.50;;;19.80;67.80;;;;;;5009426;28;20704;-74
2023/08/29 08:12:59;;;;;;;5.80;2.65;;;19.90;67.90;;;;;;5007085;28;20030;-70
2023/08/29 08:15:26;;;;;;;4.53;2.22;;;19.90;67.80;;;;;;5007083;28;20060;-71
2023/08/29 08:17:52;;;;;;;3.05;1.80;;;19.90;67.70;;;;;;5004715;28;20033;-71
2023/08/29 08:20:18;;;;;;;4.70;3.15;;;20.00;67.80;;;;;;5017403;28;20035;-71
2023/08/29 08:22:45;;;;;;;5.35;3.30;;;20.00;67.70;;;;;;5014034;28;20068;-72
2023/08/29 08:25:11;;;;;;;3.25;2.20;;;20.10;67.80;;;;;;5014495;28;20087;-70
2023/08/29 08:27:46;;;;;;;4.13;2.30;;;20.10;67.70;;;;;;5009778;28;20455;-70
2023/08/29 08:30:14;;;;;;;5.00;2.50;;;20.10;67.70;;;;;;5015666;28;20026;-71
2023/08/29 08:32:43;;;;;;;3.70;2.40;;;20.20;67.80;;;;;;5009516;28;20432;-71
2023/08/29 08:35:10;;;;;;;5.20;2.58;;;20.30;67.80;;;;;;5004570;28;20030;-70
2023/08/29 08:37:37;;;;;;;3.00;2.25;;;20.30;67.70;;;;;;5010041;28;20034;-71
2023/08/29 08:40:10;;;;;;;2.75;2.28;;;20.40;67.60;;;;;;5005882;28;21097;-70
2023/08/29 08:42:39;;;;;;;2.47;1.58;;;20.50;67.60;;;;;;5015144;28;20513;-73
2023/08/29 08:45:07;;;;;;;3.65;1.80;;;20.50;67.50;;;;;;5008040;28;20037;-71
2023/08/29 08:47:37;;;;;;;4.32;2.45;;;20.50;68.00;;;;;;5011020;28;20177;-70
2023/08/29 08:50:11;;;;;;;2.22;1.58;;;20.50;67.40;;;;;;5014837;28;20049;-70
2023/08/29 08:52:39;;;;;;;3.60;1.70;;;20.60;67.50;;;;;;5014223;28;20038;-70
2023/08/29 08:55:06;;;;;;;4.70;1.95;;;20.50;67.30;;;;;;5009207;28;20290;-70
2023/08/29 08:57:33;;;;;;;7.40;2.60;;;20.50;67.30;;;;;;5021663;28;20029;-72
2023/08/29 08:59:59;;;;;;;1.90;1.65;;;20.50;67.30;;;;;;5019279;28;20033;-70
2023/08/29 09:02:27;;;;;;;2.33;1.65;;;20.50;67.20;;;;;;5012449;28;20375;-70
2023/08/29 09:04:53;;;;;;;3.70;2.13;;;20.50;67.30;;;;;;5018495;28;20087;-72
2023/08/29 09:07:23;;;;;;;2.25;1.70;;;20.50;67.30;;;;;;5008914;28;20129;-72
2023/08/29 09:10:17;;;;;;;2.38;1.73;;;20.50;67.20;;;;;;5009301;28;20421;-71
2023/08/29 09:12:52;;;;;;;3.17;2.20;;;20.40;67.10;;;;;;5005968;28;20060;-72
2023/08/29 09:15:19;;;;;;;6.32;2.28;;;20.40;67.00;;;;;;5005930;28;20441;-71
2023/08/29 09:17:46;;;;;;;2.33;1.50;;;20.40;67.10;;;;;;5002772;28;20045;-72
2023/08/29 09:20:12;;;;;;;3.60;1.65;;;20.40;67.10;;;;;;5000709;28;20036;-71
2023/08/29 09:22:43;;;;;;;2.28;1.75;;;20.40;67.10;;;;;;5011101;28;20033;-70
2023/08/29 09:25:11;;;;;;;2.10;1.65;;;20.50;67.40;;;;;;4994517;28;20300;-72
2023/08/29 09:27:42;;;;;;;2.08;1.88;;;20.40;67.20;;;;;;5011935;28;20042;-70
2023/08/29 09:30:11;;;;;;;3.25;1.70;;;20.50;67.30;;;;;;5014928;28;20033;-71
2023/08/29 09:32:42;;;;;;;3.38;2.35;;;20.60;67.40;;;;;;5010244;28;20125;-72
2023/08/29 09:35:18;;;;;;;2.35;2.10;;;20.60;67.20;;;;;;5004736;28;20045;-71
2023/08/29 09:37:53;;;;;;;4.78;2.10;;;20.80;67.20;;;;;;4996090;28;20037;-72
2023/08/29 09:40:23;;;;;;;3.28;2.03;;;20.90;67.20;;;;;;5010235;28;20049;-71
2023/08/29 09:42:53;;;;;;;3.08;2.25;;;21.00;67.10;;;;;;5011113;28;20025;-71
2023/08/29 09:45:20;;;;;;;3.78;1.88;;;21.00;66.80;;;;;;5011737;28;20088;-71
2023/08/29 09:47:46;;;;;;;2.63;2.08;;;21.10;66.80;;;;;;5006751;28;20489;-71
2023/08/29 09:50:13;;;;;;;2.92;1.90;;;21.20;66.90;;;;;;5010151;28;20111;-72
2023/08/29 09:52:40;;;;;;;3.05;2.00;;;21.20;66.70;;;;;;5002696;28;20092;-73
2023/08/29 09:55:09;;;;;;;3.50;2.45;;;21.30;66.70;;;;;;5005696;28;20033;-72
2023/08/29 09:57:37;;;;;;;3.35;1.98;;;21.30;66.60;;;;;;5000822;28;20037;-71
2023/08/29 10:00:09;;;;;;;2.25;1.98;;;21.40;66.50;;;;;;5011612;28;20179;-71
2023/08/29 10:02:37;;;;;;;2.03;1.83;;;21.50;66.40;;;;;;5000640;28;20219;-71
2023/08/29 10:05:08;;;;;;;4.78;2.28;;;21.60;66.30;;;;;;5003442;28;20038;-72
2023/08/29 10:07:44;;;;;;;3.40;2.55;;;21.70;66.20;;;;;;5002804;28;20050;-71
2023/08/29 10:10:13;;;;;;;3.15;2.10;;;21.80;66.10;;;;;;5006604;28;20386;-72
2023/08/29 10:12:44;;;;;;;2.58;1.75;;;21.80;65.90;;;;;;5011493;28;20099;-70
2023/08/29 10:15:12;;;;;;;2.25;1.75;;;21.90;66.00;;;;;;5013059;28;20323;-70
2023/08/29 10:17:41;;;;;;;2.95;2.70;;;21.90;65.80;;;;;;5003160;28;20037;-72
2023/08/29 10:20:09;;;;;;;3.08;2.28;;;22.00;65.90;;;;;;4999188;28;20029;-73
2023/08/29 10:22:38;;;;;;;6.85;2.63;;;22.00;65.90;;;;;;5011145;28;20033;-73
2023/08/29 10:25:05;;;;;;;4.30;2.15;;;22.00;65.80;;;;;;5006697;28;20133;-72
2023/08/29 10:27:32;;;;;;;3.53;2.40;;;22.00;65.70;;;;;;5019227;28;20041;-70
2023/08/29 10:29:59;;;;;;;3.50;2.38;;;22.00;65.50;;;;;;5017432;28;20091;-74
2023/08/29 10:32:27;;;;;;;4.43;2.25;;;22.10;65.60;;;;;;5011980;28;20069;-70
2023/08/29 10:34:54;;;;;;;2.58;2.38;;;22.20;65.60;;;;;;5013900;28;20064;-70
2023/08/29 10:37:21;;;;;;;3.80;2.75;;;22.20;65.40;;;;;;5020301;28;20064;-70
2023/08/29 10:39:50;;;;;;;4.13;2.30;;;22.30;65.30;;;;;;5015575;28;20029;-72
2023/08/29 10:42:17;;;;;;;3.22;2.25;;;22.50;65.30;;;;;;5010887;28;20087;-71
2023/08/29 10:44:44;;;;;;;25.05;2.88;;;22.60;65.10;;;;;;5013522;28;20116;-71
2023/08/29 10:47:27;;;;;;;4.43;3.05;;;22.80;65.00;;;;;;5008276;28;20330;-72
2023/08/29 10:50:07;;;;;;;3.45;2.15;;;23.00;64.90;;;;;;5010090;28;20113;-72
2023/08/29 10:52:42;;;;;;;2.80;2.42;;;23.30;64.80;;;;;;5010691;28;20375;-73
2023/08/29 10:55:21;;;;;;;2.20;1.90;;;23.50;64.60;;;;;;5018962;28;20029;-72
2023/08/29 10:57:48;;;;;;;3.53;2.28;;;23.80;64.60;;;;;;5014151;28;20037;-71
2023/08/29 11:00:17;;;;;;;3.20;2.30;;;23.90;64.30;;;;;;5013977;28;20034;-72
2023/08/29 11:02:44;;;;;;;2.35;2.15;;;24.10;64.20;;;;;;5018041;28;20033;-72
2023/08/29 11:05:13;;;;;;;2.33;2.00;;;24.20;64.00;;;;;;5005581;28;20037;-73
2023/08/29 11:07:40;;;;;;;4.00;2.53;;;24.40;63.90;;;;;;5010783;28;20075;-71
2023/08/29 11:10:16;;;;;;;3.35;2.75;;;24.40;63.60;;;;;;5014906;28;20489;-71
2023/08/29 11:13:09;;;;;;;3.47;2.45;;;24.50;63.40;;;;;;5008964;28;20049;-72
2023/08/29 11:15:47;;;;;;;4.30;3.08;;;24.60;63.30;;;;;;5006580;28;20044;-71
2023/08/29 11:18:29;;;;;;;5.00;2.80;;;24.60;63.20;;;;;;5011448;28;20053;-71
2023/08/29 11:20:55;;;;;;;2.60;2.35;;;24.70;63.30;;;;;;5014849;28;20029;-71
2023/08/29 11:23:22;;;;;;;3.55;2.60;;;24.80;63.50;;;;;;5016405;28;20048;-71
2023/08/29 11:25:51;;;;;;;3.22;2.30;;;24.80;63.20;;;;;;5012847;28;20382;-72
2023/08/29 11:28:18;;;;;;;2.88;2.60;;;24.80;63.00;;;;;;5016647;28;20037;-72
2023/08/29 11:30:45;;;;;;;3.03;2.63;;;24.80;62.90;;;;;;5023515;28;20045;-73
2023/08/29 11:33:12;;;;;;;3.83;2.90;;;24.70;62.80;;;;;;5008101;28;20034;-72
2023/08/29 11:35:38;;;;;;;3.58;2.53;;;24.70;63.00;;;;;;5007882;28;20041;-72
2023/08/29 11:38:09;;;;;;;5.65;2.88;;;24.60;63.00;;;;;;5007949;28;20528;-72
2023/08/29 11:40:36;;;;;;;4.15;2.70;;;24.50;62.90;;;;;;5015094;28;20484;-72
2023/08/29 11:43:04;;;;;;;4.38;2.85;;;24.50;63.00;;;;;;5011935;28;20064;-72
2023/08/29 11:45:39;;;;;;;3.85;3.15;;;24.40;62.90;;;;;;5013367;28;20033;-73
2023/08/29 11:48:06;;;;;;;5.25;3.00;;;24.30;62.90;;;;;;5011434;28;20052;-72
2023/08/29 11:50:32;;;;;;;6.57;3.65;;;24.20;63.00;;;;;;5009963;28;20054;-72
2023/08/29 11:52:58;;;;;;;3.47;2.60;;;24.20;63.10;;;;;;5010993;28;20489;-71
2023/08/29 11:55:25;;;;;;;5.20;2.72;;;24.30;63.30;;;;;;5003664;28;20047;-71
2023/08/29 11:57:52;;;;;;;4.82;3.17;;;24.40;63.20;;;;;;5013181;28;20508;-73
2023/08/29 12:00:24;;;;;;;4.53;2.35;;;24.60;63.10;;;;;;5008928;28;20517;-72
2023/08/29 12:02:51;;;;;;;3.65;2.65;;;24.90;63.00;;;;;;5013126;28;20037;-73
2023/08/29 12:05:20;;;;;;;3.13;2.83;;;25.20;62.70;;;;;;5014816;28;20044;-72
2023/08/29 12:07:53;;;;;;;4.20;3.10;;;25.30;62.20;;;;;;5012365;28;20038;-71
2023/08/29 12:10:20;;;;;;;5.32;3.70;;;25.60;61.80;;;;;;5013287;28;20081;-71
2023/08/29 12:12:46;;;;;;;3.25;2.90;;;25.80;61.50;;;;;;5017048;28;20041;-71
2023/08/29 12:15:16;;;;;;;3.38;2.80;;;25.90;61.10;;;;;;5012448;28;20295;-73
2023/08/29 12:17:48;;;;;;;3.25;2.65;;;26.00;60.80;;;;;;5007291;28;20380;-72
2023/08/29 12:20:15;;;;;;;3.65;3.03;;;26.00;60.50;;;;;;5001768;28;20052;-72
2023/08/29 12:22:47;;;;;;;3.67;3.38;;;26.10;60.40;;;;;;5012055;28;20044;-71
2023/08/29 12:25:15;;;;;;;4.90;3.03;;;26.10;60.00;;;;;;5012850;28;20052;-73
2023/08/29 12:27:44;;;;;;;3.45;2.85;;;26.20;60.10;;;;;;5006493;28;20107;-72
2023/08/29 12:30:14;;;;;;;3.85;3.13;;;26.20;60.00;;;;;;5010106;28;20030;-71
2023/08/29 12:32:47;;;;;;;3.05;2.75;;;26.30;60.40;;;;;;5014117;28;20034;-72
2023/08/29 12:35:15;;;;;;;4.00;3.28;;;26.30;60.20;;;;;;5002729;28;20220;-72
2023/08/29 12:37:41;;;;;;;3.85;3.30;;;26.30;59.50;;;;;;5010542;28;20044;-73
2023/08/29 12:40:08;;;;;;;3.55;3.22;;;26.30;59.20;;;;;;5016640;28;20482;-74
2023/08/29 12:42:36;;;;;;;3.95;3.17;;;26.40;59.00;;;;;;5012198;28;20037;-71
2023/08/29 12:45:04;;;;;;;5.63;3.13;;;26.40;58.90;;;;;;5015948;28;20551;-73
2023/08/29 12:47:30;;;;;;;3.42;2.97;;;26.50;58.80;;;;;;5003919;28;20041;-73
2023/08/29 12:49:57;;;;;;;3.63;3.20;;;26.60;58.60;;;;;;5005456;28;20256;-72
2023/08/29 12:52:26;;;;;;;6.88;2.90;;;26.70;58.40;;;;;;5008882;28;20069;-73